createdAt,value
2023-01-22T00:01:09.147Z,11.10
2023-01-22T00:03:37.137Z,15.23
2023-01-22T00:06:04.182Z,12.20
2023-01-22T00:08:31.101Z,8.82
2023-01-22T00:10:57.944Z,11.10
2023-01-22T00:13:26.239Z,11.52
2023-01-22T00:15:53.494Z,9.93
2023-01-22T00:18:20.295Z,9.88
2023-01-22T00:20:49.008Z,13.75
2023-01-22T00:23:16.364Z,8.82
2023-01-22T00:25:43.373Z,10.70
2023-01-22T00:28:11.065Z,10.75
2023-01-22T00:30:38.063Z,11.05
2023-01-22T00:33:05.402Z,9.88
2023-01-22T00:35:34.340Z,10.98
2023-01-22T00:38:01.380Z,11.40
2023-01-22T00:40:28.164Z,12.90
2023-01-22T00:42:54.977Z,10.70
2023-01-22T00:45:21.737Z,15.27
2023-01-22T00:47:48.631Z,12.13
2023-01-22T00:50:15.688Z,11.23
2023-01-22T00:52:42.598Z,8.13
2023-01-22T00:55:09.648Z,10.52
2023-01-22T00:57:36.394Z,11.23
2023-01-22T01:00:03.809Z,9.20
2023-01-22T01:02:30.599Z,6.75
2023-01-22T01:04:57.417Z,8.77
2023-01-22T01:07:24.237Z,9.40
2023-01-22T01:09:51.017Z,11.15
2023-01-22T01:12:17.878Z,8.63
2023-01-22T01:14:44.651Z,6.53
2023-01-22T01:17:11.446Z,5.97
2023-01-22T01:19:38.212Z,11.95
2023-01-22T01:22:06.210Z,8.13
2023-01-22T01:24:33.001Z,6.38
2023-01-22T01:26:59.738Z,7.90
2023-01-22T01:29:26.524Z,8.93
2023-01-22T01:31:54.633Z,5.93
2023-01-22T01:34:21.490Z,6.55
2023-01-22T01:36:49.593Z,6.13
2023-01-22T01:39:17.255Z,7.45
2023-01-22T01:41:44.342Z,5.55
2023-01-22T01:44:21.657Z,6.20
2023-01-22T01:47:01.047Z,8.30
2023-01-22T01:49:44.920Z,6.57
2023-01-22T01:52:13.250Z,5.80
2023-01-22T01:54:43.019Z,5.03
2023-01-22T01:57:19.439Z,6.20
2023-01-22T01:59:47.868Z,5.88
2023-01-22T02:02:15.463Z,7.03
2023-01-22T02:04:42.262Z,6.18
2023-01-22T02:07:09.038Z,6.07
2023-01-22T02:09:35.800Z,7.20
2023-01-22T02:12:03.006Z,6.50
2023-01-22T02:14:39.524Z,7.35
2023-01-22T02:17:07.604Z,6.80
2023-01-22T02:19:34.389Z,5.82
2023-01-22T02:22:01.218Z,6.13
2023-01-22T02:24:30.818Z,5.68
2023-01-22T02:26:57.592Z,4.40
2023-01-22T02:29:26.842Z,8.18
2023-01-22T02:31:53.676Z,5.40
2023-01-22T02:34:24.362Z,5.50
2023-01-22T02:36:51.801Z,5.68
2023-01-22T02:39:18.585Z,4.53
2023-01-22T02:41:46.062Z,4.72
2023-01-22T02:44:12.811Z,4.43
2023-01-22T02:46:39.603Z,6.78
2023-01-22T02:49:06.400Z,5.47
2023-01-22T02:51:33.194Z,5.95
2023-01-22T02:54:02.366Z,5.03
2023-01-22T02:56:29.227Z,6.68
2023-01-22T02:58:56.114Z,5.47
2023-01-22T03:01:24.756Z,5.45
2023-01-22T03:03:55.202Z,7.10
2023-01-22T03:06:26.157Z,5.50
2023-01-22T03:08:59.163Z,5.72
2023-01-22T03:11:29.484Z,5.60
2023-01-22T03:14:15.244Z,6.60
2023-01-22T03:17:03.218Z,5.10
2023-01-22T03:19:49.076Z,6.90
2023-01-22T03:22:16.179Z,5.63
2023-01-22T03:24:50.466Z,4.60
2023-01-22T03:27:19.245Z,4.30
2023-01-22T03:29:46.579Z,4.82
2023-01-22T03:32:14.088Z,4.07
2023-01-22T03:34:41.547Z,4.93
2023-01-22T03:37:09.806Z,4.93
2023-01-22T03:39:36.636Z,3.92
2023-01-22T03:42:03.447Z,5.97
2023-01-22T03:44:30.219Z,3.88
2023-01-22T03:46:57.123Z,3.70
2023-01-22T03:49:24.154Z,5.20
2023-01-22T03:51:50.914Z,3.83
2023-01-22T03:54:18.141Z,4.45
2023-01-22T03:56:44.913Z,3.75
2023-01-22T03:59:11.917Z,4.40
2023-01-22T04:01:39.044Z,3.42
2023-01-22T04:04:05.805Z,4.88
2023-01-22T04:06:32.745Z,4.10
2023-01-22T04:08:59.504Z,4.50
2023-01-22T04:11:26.333Z,6.90
2023-01-22T04:13:55.157Z,5.78
2023-01-22T04:16:22.266Z,5.18
2023-01-22T04:18:49.124Z,4.57
2023-01-22T04:21:15.861Z,6.30
2023-01-22T04:23:42.655Z,4.75
2023-01-22T04:26:09.406Z,4.25
2023-01-22T04:28:36.202Z,4.25
2023-01-22T04:31:04.601Z,5.75
2023-01-22T04:33:31.971Z,5.30
2023-01-22T04:35:58.825Z,6.85
2023-01-22T04:38:25.850Z,5.82
2023-01-22T04:40:52.628Z,4.13
2023-01-22T04:43:19.473Z,6.75
2023-01-22T04:45:46.321Z,5.70
2023-01-22T04:48:14.002Z,5.10
2023-01-22T04:50:40.830Z,4.63
2023-01-22T04:53:07.607Z,7.78
2023-01-22T04:55:34.412Z,6.07
2023-01-22T04:58:02.115Z,4.55
2023-01-22T05:00:30.613Z,4.57
2023-01-22T05:02:59.794Z,4.78
2023-01-22T05:05:27.640Z,6.38
2023-01-22T05:07:54.520Z,6.20
2023-01-22T05:10:22.088Z,5.25
2023-01-22T05:12:49.840Z,4.15
2023-01-22T05:15:23.950Z,5.65
2023-01-22T05:17:52.987Z,5.72
2023-01-22T05:20:21.368Z,6.43
2023-01-22T05:22:49.098Z,7.40
2023-01-22T05:25:15.974Z,3.78
2023-01-22T05:27:43.323Z,4.70
2023-01-22T05:30:12.104Z,5.93
2023-01-22T05:32:38.953Z,4.78
2023-01-22T05:35:06.565Z,5.50
2023-01-22T05:37:33.436Z,5.65
2023-01-22T05:40:00.247Z,5.65
2023-01-22T05:42:27.029Z,7.28
2023-01-22T05:44:53.838Z,5.05
2023-01-22T05:47:20.606Z,5.95
2023-01-22T05:49:47.392Z,5.22
2023-01-22T05:52:14.229Z,6.95
2023-01-22T05:54:41.038Z,7.90
2023-01-22T05:57:08.198Z,8.57
2023-01-22T05:59:35.036Z,6.63
2023-01-22T06:02:02.480Z,8.38
2023-01-22T06:04:29.919Z,7.07
2023-01-22T06:06:56.858Z,7.20
2023-01-22T06:09:24.223Z,7.22
2023-01-22T06:11:51.237Z,5.80
2023-01-22T06:14:18.170Z,6.65
2023-01-22T06:16:44.956Z,7.15
2023-01-22T06:19:12.513Z,6.38
2023-01-22T06:21:39.743Z,6.55
2023-01-22T06:24:06.997Z,6.45
2023-01-22T06:26:33.778Z,5.82
2023-01-22T06:29:00.693Z,7.15
2023-01-22T06:31:27.608Z,7.00
2023-01-22T06:33:54.948Z,6.82
2023-01-22T06:36:21.831Z,6.00
2023-01-22T06:38:48.581Z,7.57
2023-01-22T06:41:15.380Z,6.60
2023-01-22T06:43:42.166Z,7.03
2023-01-22T06:46:09.013Z,7.53
2023-01-22T06:48:35.841Z,8.60
2023-01-22T06:51:02.653Z,9.20
2023-01-22T06:53:29.497Z,6.70
2023-01-22T06:55:59.727Z,8.27
2023-01-22T06:58:26.532Z,11.07
2023-01-22T07:00:53.376Z,5.90
2023-01-22T07:03:20.855Z,7.35
2023-01-22T07:05:57.379Z,6.22
2023-01-22T07:08:24.471Z,7.55
2023-01-22T07:10:51.411Z,6.97
2023-01-22T07:13:18.494Z,7.18
2023-01-22T07:15:45.302Z,6.10
2023-01-22T07:18:14.336Z,6.97
2023-01-22T07:20:42.245Z,7.90
2023-01-22T07:23:09.640Z,6.18
2023-01-22T07:25:36.518Z,8.52
2023-01-22T07:28:05.924Z,5.97
2023-01-22T07:30:33.152Z,5.80
2023-01-22T07:33:01.945Z,6.60
2023-01-22T07:35:29.596Z,6.25
2023-01-22T07:37:58.694Z,7.80
2023-01-22T07:40:26.728Z,5.88
2023-01-22T07:42:54.933Z,7.10
2023-01-22T07:45:24.542Z,7.45
2023-01-22T07:47:57.645Z,6.65
2023-01-22T07:50:31.046Z,7.53
2023-01-22T07:52:58.137Z,8.77
2023-01-22T07:55:24.966Z,8.15
2023-01-22T07:58:05.956Z,8.43
2023-01-22T08:00:35.206Z,8.95
2023-01-22T08:03:04.982Z,7.22
2023-01-22T08:05:31.818Z,6.35
2023-01-22T08:07:59.109Z,7.45
2023-01-22T08:10:25.930Z,7.47
2023-01-22T08:12:52.747Z,6.78
2023-01-22T08:15:19.513Z,9.13
2023-01-22T08:17:50.502Z,7.68
2023-01-22T08:20:18.004Z,8.63
2023-01-22T08:22:45.369Z,7.90
2023-01-22T08:25:12.208Z,6.72
2023-01-22T08:27:39.050Z,8.88
2023-01-22T08:30:07.847Z,6.40
2023-01-22T08:32:34.720Z,6.28
2023-01-22T08:35:01.565Z,6.75
2023-01-22T08:37:28.408Z,7.60
2023-01-22T08:39:55.284Z,7.20
2023-01-22T08:42:22.077Z,7.78
2023-01-22T08:44:48.849Z,8.43
2023-01-22T08:47:15.682Z,7.53
2023-01-22T08:49:42.456Z,7.47
2023-01-22T08:52:09.238Z,9.85
2023-01-22T08:54:36.015Z,8.75
2023-01-22T08:57:02.843Z,7.20
2023-01-22T08:59:31.114Z,9.98
2023-01-22T09:01:59.746Z,7.50
2023-01-22T09:04:27.437Z,7.15
2023-01-22T09:06:54.565Z,9.13
2023-01-22T09:09:21.369Z,8.25
2023-01-22T09:11:48.118Z,11.40
2023-01-22T09:14:14.995Z,8.75
2023-01-22T09:16:41.910Z,10.02
2023-01-22T09:19:08.681Z,9.27
2023-01-22T09:21:37.294Z,13.45
2023-01-22T09:24:05.932Z,9.55
2023-01-22T09:26:33.253Z,9.20
2023-01-22T09:29:01.046Z,9.90
2023-01-22T09:31:28.193Z,8.77
2023-01-22T09:33:55.609Z,9.52
2023-01-22T09:36:22.400Z,10.13
2023-01-22T09:38:49.167Z,8.10
2023-01-22T09:41:37.798Z,8.43
2023-01-22T09:44:16.595Z,15.02
2023-01-22T09:46:48.113Z,10.50
2023-01-22T09:49:19.511Z,11.82
2023-01-22T09:51:59.079Z,7.60
2023-01-22T09:54:27.966Z,10.82
2023-01-22T09:57:03.262Z,9.15
2023-01-22T09:59:52.219Z,6.55
2023-01-22T10:02:41.836Z,8.32
2023-01-22T10:05:14.650Z,8.00
2023-01-22T10:07:49.104Z,8.38
2023-01-22T10:10:25.598Z,5.72
2023-01-22T10:13:22.137Z,6.93
2023-01-22T10:15:52.951Z,7.10
2023-01-22T10:18:41.167Z,7.68
2023-01-22T10:21:24.271Z,7.85
2023-01-22T10:23:51.804Z,5.80
2023-01-22T10:26:28.705Z,8.38
2023-01-22T10:29:04.366Z,6.40
2023-01-22T10:31:39.835Z,7.13
2023-01-22T10:34:30.126Z,12.60
2023-01-22T10:37:12.193Z,11.05
2023-01-22T10:39:45.053Z,7.88
2023-01-22T10:42:21.219Z,6.75
2023-01-22T10:44:48.247Z,8.43
2023-01-22T10:47:21.767Z,8.15
2023-01-22T10:50:04.071Z,6.07
2023-01-22T10:52:39.550Z,7.13
2023-01-22T10:55:07.493Z,7.20
2023-01-22T10:57:37.865Z,6.78
2023-01-22T11:00:13.489Z,7.97
2023-01-22T11:02:49.576Z,10.52
2023-01-22T11:05:23.993Z,6.10
2023-01-22T11:08:00.539Z,5.75
2023-01-22T11:10:45.080Z,5.82
2023-01-22T11:13:43.644Z,5.38
2023-01-22T11:16:18.233Z,3.50
2023-01-22T11:19:07.292Z,4.82
2023-01-22T11:21:52.779Z,4.57
2023-01-22T11:24:37.832Z,6.53
2023-01-22T11:27:57.948Z,4.15
2023-01-22T11:31:06.301Z,3.22
2023-01-22T11:33:47.184Z,3.13
2023-01-22T11:36:46.286Z,5.82
2023-01-22T11:39:40.519Z,4.05
2023-01-22T11:42:40.270Z,4.38
2023-01-22T11:45:25.173Z,5.07
2023-01-22T11:48:15.872Z,5.05
2023-01-22T11:50:49.702Z,3.97
2023-01-22T11:53:33.181Z,4.32
2023-01-22T11:56:21.297Z,3.00
2023-01-22T11:59:12.852Z,4.30
2023-01-22T12:02:03.854Z,3.15
2023-01-22T12:04:59.986Z,4.30
2023-01-22T12:07:56.628Z,4.38
2023-01-22T12:10:38.720Z,3.55
2023-01-22T12:13:36.658Z,6.28
2023-01-22T12:16:48.595Z,3.83
2023-01-22T12:19:27.434Z,3.75
2023-01-22T12:22:48.255Z,3.38
2023-01-22T12:25:42.850Z,3.47
2023-01-22T12:28:24.684Z,3.63
2023-01-22T12:31:16.040Z,3.55
2023-01-22T12:33:44.358Z,3.40
2023-01-22T12:36:16.475Z,3.65
2023-01-22T12:38:57.324Z,3.45
2023-01-22T12:41:46.539Z,3.72
2023-01-22T12:44:50.122Z,5.85
2023-01-22T12:47:41.356Z,11.20
2023-01-22T12:50:23.606Z,7.57
2023-01-22T12:53:17.500Z,9.95
2023-01-22T12:55:44.997Z,7.00
2023-01-22T12:58:26.483Z,10.15
2023-01-22T13:01:11.807Z,7.03
2023-01-22T13:03:41.179Z,9.60
2023-01-22T13:06:32.004Z,7.20
2023-01-22T13:08:59.146Z,5.43
2023-01-22T13:11:37.965Z,5.13
2023-01-22T13:14:28.381Z,6.72
2023-01-22T13:17:00.320Z,6.65
2023-01-22T13:19:35.814Z,8.93
2023-01-22T13:22:03.518Z,11.88
2023-01-22T13:24:30.310Z,10.27
2023-01-22T13:27:01.121Z,8.32
2023-01-22T13:29:36.697Z,7.13
2023-01-22T13:32:21.321Z,6.95
2023-01-22T13:34:48.665Z,9.20
2023-01-22T13:37:26.555Z,6.00
2023-01-22T13:39:53.350Z,9.43
2023-01-22T13:42:21.328Z,7.47
2023-01-22T13:44:50.920Z,8.65
2023-01-22T13:47:32.250Z,10.27
2023-01-22T13:49:59.628Z,7.20
2023-01-22T13:52:28.190Z,8.48
2023-01-22T13:55:18.374Z,8.00
2023-01-22T13:57:51.269Z,8.00
2023-01-22T14:00:29.580Z,7.07
2023-01-22T14:02:57.833Z,6.78
2023-01-22T14:05:32.169Z,9.32
2023-01-22T14:08:13.308Z,8.10
2023-01-22T14:10:42.037Z,7.68
2023-01-22T14:13:15.395Z,7.93
2023-01-22T14:15:42.444Z,8.55
2023-01-22T14:18:17.708Z,9.73
2023-01-22T14:20:47.095Z,9.38
2023-01-22T14:23:15.476Z,9.70
2023-01-22T14:25:46.343Z,10.15
2023-01-22T14:28:13.515Z,8.30
2023-01-22T14:30:40.328Z,11.75
2023-01-22T14:33:07.309Z,8.27
2023-01-22T14:35:34.049Z,8.65
2023-01-22T14:38:01.192Z,8.88
2023-01-22T14:40:28.395Z,9.00
2023-01-22T14:42:55.296Z,9.15
2023-01-22T14:45:22.124Z,9.73
2023-01-22T14:47:51.792Z,10.18
2023-01-22T14:50:19.686Z,9.48
2023-01-22T14:52:47.406Z,8.93
2023-01-22T14:55:14.804Z,7.05
2023-01-22T14:57:41.591Z,9.75
2023-01-22T15:00:09.608Z,9.88
2023-01-22T15:02:39.671Z,8.25
2023-01-22T15:05:07.952Z,8.60
2023-01-22T15:07:35.631Z,9.18
2023-01-22T15:10:04.129Z,13.32
2023-01-22T15:12:30.968Z,9.63
2023-01-22T15:14:58.375Z,8.07
2023-01-22T15:17:25.206Z,12.35
2023-01-22T15:19:51.981Z,11.40
2023-01-22T15:22:18.858Z,9.77
2023-01-22T15:24:45.615Z,9.38
2023-01-22T15:27:12.431Z,9.85
2023-01-22T15:29:39.238Z,13.48
2023-01-22T15:32:06.005Z,11.35
2023-01-22T15:34:32.805Z,12.23
2023-01-22T15:36:59.595Z,13.73
2023-01-22T15:39:26.373Z,15.48
2023-01-22T15:41:53.128Z,13.82
2023-01-22T15:44:19.920Z,17.90
2023-01-22T15:46:47.240Z,13.27
2023-01-22T15:49:14.065Z,10.98
2023-01-22T15:51:41.971Z,14.10
2023-01-22T15:54:14.115Z,13.85
2023-01-22T15:56:41.105Z,12.95
2023-01-22T15:59:07.949Z,11.27
2023-01-22T16:01:35.044Z,11.77
2023-01-22T16:04:02.978Z,12.00
2023-01-22T16:06:32.768Z,11.80
2023-01-22T16:09:05.867Z,12.65
2023-01-22T16:11:33.201Z,11.40
2023-01-22T16:14:00.638Z,12.10
2023-01-22T16:16:34.796Z,9.98
2023-01-22T16:21:30.188Z,20.58
2023-01-22T16:24:00.235Z,18.90
2023-01-22T16:26:30.579Z,23.08
2023-01-22T16:28:59.658Z,13.93
2023-01-22T16:31:30.782Z,14.25
2023-01-22T16:34:16.095Z,13.98
2023-01-22T16:36:43.907Z,16.27
2023-01-22T16:39:21.405Z,20.35
2023-01-22T16:41:50.973Z,23.08
2023-01-22T16:44:24.393Z,18.42
2023-01-22T16:46:54.135Z,17.92
2023-01-22T16:49:24.017Z,22.98
2023-01-22T16:51:58.065Z,19.35
2023-01-22T16:57:00.305Z,23.67
2023-01-22T16:59:27.540Z,17.17
2023-01-22T17:01:56.488Z,22.30
2023-01-22T17:04:23.274Z,19.08
2023-01-22T17:06:55.759Z,19.58
2023-01-22T17:09:26.004Z,20.08
2023-01-22T17:11:56.878Z,18.70
2023-01-22T17:14:27.102Z,18.33
2023-01-22T17:16:54.047Z,17.63
2023-01-22T17:19:21.047Z,17.23
2023-01-22T17:21:51.846Z,17.58
2023-01-22T17:24:18.903Z,20.58
2023-01-22T17:26:47.980Z,15.48
2023-01-22T17:29:14.906Z,20.90
2023-01-22T17:31:42.075Z,21.05
2023-01-22T17:34:10.945Z,17.13
2023-01-22T17:36:40.037Z,29.17
2023-01-22T17:39:08.051Z,20.27
2023-01-22T17:41:34.802Z,23.20
2023-01-22T17:44:01.871Z,24.05
2023-01-22T17:46:31.840Z,18.38
2023-01-22T17:49:00.955Z,22.13
2023-01-22T17:51:29.316Z,25.45
2023-01-22T17:53:59.109Z,22.15
2023-01-22T17:56:30.463Z,24.02
2023-01-22T17:59:07.107Z,22.70
2023-01-22T18:01:35.776Z,22.95
2023-01-22T18:04:06.837Z,26.05
2023-01-22T18:06:34.741Z,28.48
2023-01-22T18:09:02.784Z,31.48
2023-01-22T18:11:30.193Z,27.02
2023-01-22T18:13:58.532Z,35.10
2023-01-22T18:16:29.476Z,32.17
2023-01-22T18:18:58.220Z,29.60
2023-01-22T18:21:25.219Z,33.28
2023-01-22T18:23:52.011Z,36.42
2023-01-22T18:26:22.731Z,36.88
2023-01-22T18:28:51.188Z,38.15
2023-01-22T18:31:22.224Z,33.67
2023-01-22T18:33:49.783Z,37.72
2023-01-22T18:36:21.239Z,36.47
2023-01-22T18:38:49.211Z,33.85
2023-01-22T18:41:20.223Z,37.47
2023-01-22T18:43:48.420Z,48.03
2023-01-22T18:46:16.076Z,40.83
2023-01-22T18:48:43.872Z,39.88
2023-01-22T18:51:13.291Z,41.10
2023-01-22T18:53:42.018Z,40.28
2023-01-22T18:56:10.978Z,39.92
2023-01-22T18:58:39.062Z,46.80
2023-01-22T19:01:24.711Z,47.85
2023-01-22T19:04:01.074Z,42.35
2023-01-22T19:06:36.651Z,41.58
2023-01-22T19:09:14.035Z,38.78
2023-01-22T19:11:44.500Z,42.53
2023-01-22T19:14:17.511Z,37.55
2023-01-22T19:16:44.952Z,40.80
2023-01-22T19:19:13.517Z,44.63
2023-01-22T19:21:46.908Z,38.47
2023-01-22T19:24:16.920Z,51.20
2023-01-22T19:26:46.464Z,50.85
2023-01-22T19:29:19.766Z,44.92
2023-01-22T19:31:51.941Z,49.22
2023-01-22T19:34:24.718Z,42.40
2023-01-22T19:36:58.205Z,44.70
2023-01-22T19:39:26.149Z,59.45
2023-01-22T19:41:54.192Z,43.00
2023-01-22T19:44:21.107Z,45.72
2023-01-22T19:46:47.975Z,50.30
2023-01-22T19:49:14.939Z,46.65
2023-01-22T19:51:41.942Z,46.78
2023-01-22T19:54:10.091Z,35.30
2023-01-22T19:56:38.661Z,40.53
2023-01-22T19:59:11.455Z,41.90
2023-01-22T20:01:39.141Z,43.03
2023-01-22T20:04:11.902Z,44.10
2023-01-22T20:06:40.011Z,45.60
2023-01-22T20:09:06.892Z,43.30
2023-01-22T20:11:33.746Z,44.55
2023-01-22T20:14:00.567Z,51.55
2023-01-22T20:16:29.806Z,47.45
2023-01-22T20:18:58.321Z,47.30
2023-01-22T20:21:26.867Z,54.95
2023-01-22T20:23:54.156Z,50.42
2023-01-22T20:26:22.059Z,48.35
2023-01-22T20:28:49.852Z,51.90
2023-01-22T20:31:22.934Z,52.05
2023-01-22T20:33:52.462Z,46.25
2023-01-22T20:36:21.786Z,56.92
2023-01-22T20:38:52.585Z,50.70
2023-01-22T20:41:20.781Z,53.90
2023-01-22T20:43:47.665Z,54.75
2023-01-22T20:46:25.050Z,44.00
2023-01-22T20:48:53.366Z,58.13
2023-01-22T20:51:27.603Z,56.97
2023-01-22T20:53:56.324Z,52.85
2023-01-22T20:56:28.763Z,46.78
2023-01-22T20:58:58.046Z,52.38
2023-01-22T21:01:25.738Z,46.90
2023-01-22T21:03:53.690Z,50.28
2023-01-22T21:06:20.778Z,43.50
2023-01-22T21:08:51.759Z,50.25
2023-01-22T21:11:20.780Z,45.38
2023-01-22T21:13:49.423Z,45.05
2023-01-22T21:16:26.078Z,40.80
2023-01-22T21:18:59.839Z,47.03
2023-01-22T21:21:28.538Z,50.15
2023-01-22T21:23:56.026Z,38.85
2023-01-22T21:26:27.530Z,43.15
2023-01-22T21:29:05.131Z,39.10
2023-01-22T21:31:32.418Z,38.92
2023-01-22T21:34:04.866Z,36.55
2023-01-22T21:36:43.428Z,39.17
2023-01-22T21:39:14.864Z,36.83
2023-01-22T21:41:42.807Z,38.60
2023-01-22T21:44:32.219Z,38.40
2023-01-22T21:46:59.006Z,43.10
2023-01-22T21:49:25.847Z,39.50
2023-01-22T21:51:55.989Z,41.22
2023-01-22T21:54:32.378Z,40.58
2023-01-22T21:56:59.576Z,40.88
2023-01-22T21:59:26.382Z,36.22
2023-01-22T22:01:54.472Z,37.13
2023-01-22T22:04:24.060Z,34.97
2023-01-22T22:06:51.269Z,35.00
2023-01-22T22:09:22.550Z,35.15
2023-01-22T22:11:49.774Z,32.80
2023-01-22T22:14:21.552Z,37.10
2023-01-22T22:16:49.147Z,30.58
2023-01-22T22:19:17.546Z,35.78
2023-01-22T22:21:44.965Z,28.85
2023-01-22T22:24:12.263Z,30.85
2023-01-22T22:26:39.921Z,32.80
2023-01-22T22:29:07.606Z,32.95
2023-01-22T22:31:34.522Z,27.13
2023-01-22T22:34:01.467Z,27.02
2023-01-22T22:36:30.523Z,25.83
2023-01-22T22:38:57.793Z,26.88
2023-01-22T22:41:28.565Z,30.77
2023-01-22T22:43:56.284Z,29.67
2023-01-22T22:46:31.426Z,22.30
2023-01-22T22:49:00.629Z,25.00
2023-01-22T22:51:36.986Z,27.73
2023-01-22T22:54:14.990Z,25.88
2023-01-22T22:56:44.463Z,24.52
2023-01-22T22:59:11.529Z,20.77
2023-01-22T23:01:38.326Z,23.05
2023-01-22T23:04:06.517Z,21.90
2023-01-22T23:06:35.595Z,25.42
2023-01-22T23:09:05.141Z,22.13
2023-01-22T23:11:34.678Z,23.60
2023-01-22T23:14:02.630Z,19.60
2023-01-22T23:16:33.518Z,21.33
2023-01-22T23:19:04.129Z,21.02
2023-01-22T23:21:31.163Z,19.02
2023-01-22T23:23:57.960Z,18.83
2023-01-22T23:26:30.399Z,20.08
2023-01-22T23:29:02.112Z,22.48
2023-01-22T23:31:32.279Z,24.13
2023-01-22T23:34:00.535Z,26.40
2023-01-22T23:36:27.795Z,20.77
2023-01-22T23:38:55.110Z,25.25
2023-01-22T23:41:22.840Z,28.40
2023-01-22T23:43:50.464Z,27.70
2023-01-22T23:46:21.666Z,29.15
2023-01-22T23:48:49.073Z,26.85
2023-01-22T23:51:16.947Z,27.13
2023-01-22T23:53:51.499Z,29.80
2023-01-22T23:56:24.512Z,29.42
2023-01-22T23:58:54.763Z,29.17
